sensor_id;sensor_type;location;lat;lon;timestamp;P1;durP1;ratioP1;P2;durP2;ratioP2
74674;SDS011;63200;48.810;12.352;2023-08-01T00:00:08;5.38;;;3.53;;
74674;SDS011;63200;48.810;12.352;2023-08-01T00:02:33;4.28;;;3.40;;
74674;SDS011;63200;48.810;12.352;2023-08-01T00:04:59;6.00;;;3.95;;
74674;SDS011;63200;48.810;12.352;2023-08-01T00:07:27;11.63;;;3.67;;
74674;SDS011;63200;48.810;12.352;2023-08-01T00:09:53;4.15;;;3.60;;
74674;SDS011;63200;48.810;12.352;2023-08-01T00:12:18;7.43;;;3.72;;
74674;SDS011;63200;48.810;12.352;2023-08-01T00:14:43;7.65;;;3.75;;
74674;SDS011;63200;48.810;12.352;2023-08-01T00:17:08;5.93;;;4.00;;
74674;SDS011;63200;48.810;12.352;2023-08-01T00:19:34;8.18;;;3.97;;
74674;SDS011;63200;48.810;12.352;2023-08-01T00:21:59;7.05;;;3.47;;
74674;SDS011;63200;48.810;12.352;2023-08-01T00:24:24;7.82;;;3.78;;
74674;SDS011;63200;48.810;12.352;2023-08-01T00:26:50;8.10;;;4.38;;
74674;SDS011;63200;48.810;12.352;2023-08-01T00:29:15;5.40;;;3.83;;
74674;SDS011;63200;48.810;12.352;2023-08-01T00:31:40;4.20;;;3.40;;
74674;SDS011;63200;48.810;12.352;2023-08-01T00:34:06;6.05;;;4.00;;
74674;SDS011;63200;48.810;12.352;2023-08-01T00:36:31;4.78;;;3.40;;
74674;SDS011;63200;48.810;12.352;2023-08-01T00:38:57;5.28;;;4.03;;
74674;SDS011;63200;48.810;12.352;2023-08-01T00:41:22;5.25;;;3.78;;
74674;SDS011;63200;48.810;12.352;2023-08-01T00:43:48;5.13;;;3.80;;
74674;SDS011;63200;48.810;12.352;2023-08-01T00:46:13;4.22;;;3.80;;
74674;SDS011;63200;48.810;12.352;2023-08-01T00:48:39;4.85;;;3.95;;
74674;SDS011;63200;48.810;12.352;2023-08-01T00:51:05;6.82;;;4.15;;
74674;SDS011;63200;48.810;12.352;2023-08-01T00:53:32;5.63;;;4.13;;
74674;SDS011;63200;48.810;12.352;2023-08-01T00:55:58;10.95;;;4.03;;
74674;SDS011;63200;48.810;12.352;2023-08-01T00:58:24;9.38;;;3.47;;
74674;SDS011;63200;48.810;12.352;2023-08-01T01:00:50;5.55;;;3.85;;
74674;SDS011;63200;48.810;12.352;2023-08-01T01:03:15;4.05;;;3.75;;
74674;SDS011;63200;48.810;12.352;2023-08-01T01:06:06;8.38;;;3.78;;
74674;SDS011;63200;48.810;12.352;2023-08-01T01:08:33;4.25;;;3.80;;
74674;SDS011;63200;48.810;12.352;2023-08-01T01:10:59;7.93;;;4.38;;
74674;SDS011;63200;48.810;12.352;2023-08-01T01:13:24;8.80;;;3.90;;
74674;SDS011;63200;48.810;12.352;2023-08-01T01:15:49;10.18;;;4.30;;
74674;SDS011;63200;48.810;12.352;2023-08-01T01:18:14;10.23;;;4.35;;
74674;SDS011;63200;48.810;12.352;2023-08-01T01:20:40;4.47;;;3.90;;
74674;SDS011;63200;48.810;12.352;2023-08-01T01:23:05;5.97;;;3.83;;
74674;SDS011;63200;48.810;12.352;2023-08-01T01:25:33;4.88;;;3.95;;
74674;SDS011;63200;48.810;12.352;2023-08-01T01:28:00;6.97;;;4.03;;
74674;SDS011;63200;48.810;12.352;2023-08-01T01:30:29;6.70;;;4.63;;
74674;SDS011;63200;48.810;12.352;2023-08-01T01:32:54;6.00;;;3.85;;
74674;SDS011;63200;48.810;12.352;2023-08-01T01:35:20;6.75;;;4.13;;
74674;SDS011;63200;48.810;12.352;2023-08-01T01:37:45;8.98;;;4.53;;
74674;SDS011;63200;48.810;12.352;2023-08-01T01:40:11;6.18;;;3.97;;
74674;SDS011;63200;48.810;12.352;2023-08-01T01:42:36;4.00;;;3.65;;
74674;SDS011;63200;48.810;12.352;2023-08-01T01:45:02;6.05;;;3.72;;
74674;SDS011;63200;48.810;12.352;2023-08-01T01:47:28;5.50;;;4.20;;
74674;SDS011;63200;48.810;12.352;2023-08-01T01:49:53;5.50;;;3.95;;
74674;SDS011;63200;48.810;12.352;2023-08-01T01:52:18;5.78;;;4.13;;
74674;SDS011;63200;48.810;12.352;2023-08-01T01:54:43;9.02;;;4.15;;
74674;SDS011;63200;48.810;12.352;2023-08-01T01:57:09;8.82;;;4.53;;
74674;SDS011;63200;48.810;12.352;2023-08-01T01:59:34;4.72;;;4.13;;
74674;SDS011;63200;48.810;12.352;2023-08-01T02:02:00;7.00;;;4.07;;
74674;SDS011;63200;48.810;12.352;2023-08-01T02:04:25;4.65;;;4.25;;
74674;SDS011;63200;48.810;12.352;2023-08-01T02:06:50;5.97;;;4.15;;
74674;SDS011;63200;48.810;12.352;2023-08-01T02:09:18;5.35;;;4.43;;
74674;SDS011;63200;48.810;12.352;2023-08-01T02:11:43;7.82;;;4.30;;
74674;SDS011;63200;48.810;12.352;2023-08-01T02:14:09;8.63;;;4.30;;
74674;SDS011;63200;48.810;12.352;2023-08-01T02:16:34;9.88;;;4.38;;
74674;SDS011;63200;48.810;12.352;2023-08-01T02:18:59;5.85;;;4.10;;
74674;SDS011;63200;48.810;12.352;2023-08-01T02:21:24;6.93;;;4.10;;
74674;SDS011;63200;48.810;12.352;2023-08-01T02:27:11;7.25;;;4.00;;
74674;SDS011;63200;48.810;12.352;2023-08-01T02:29:36;4.47;;;3.85;;
74674;SDS011;63200;48.810;12.352;2023-08-01T02:32:02;5.22;;;4.28;;
74674;SDS011;63200;48.810;12.352;2023-08-01T02:34:27;5.95;;;4.72;;
74674;SDS011;63200;48.810;12.352;2023-08-01T02:36:53;5.90;;;4.20;;
74674;SDS011;63200;48.810;12.352;2023-08-01T02:39:18;5.97;;;4.68;;
74674;SDS011;63200;48.810;12.352;2023-08-01T02:41:43;8.07;;;4.10;;
74674;SDS011;63200;48.810;12.352;2023-08-01T02:44:09;8.40;;;4.32;;
74674;SDS011;63200;48.810;12.352;2023-08-01T02:46:34;9.95;;;4.75;;
74674;SDS011;63200;48.810;12.352;2023-08-01T02:48:59;6.20;;;4.32;;
74674;SDS011;63200;48.810;12.352;2023-08-01T02:51:24;5.13;;;4.45;;
74674;SDS011;63200;48.810;12.352;2023-08-01T02:53:50;5.65;;;4.20;;
74674;SDS011;63200;48.810;12.352;2023-08-01T02:56:15;7.13;;;4.53;;
74674;SDS011;63200;48.810;12.352;2023-08-01T02:58:40;5.57;;;4.00;;
74674;SDS011;63200;48.810;12.352;2023-08-01T03:01:07;6.25;;;4.50;;
74674;SDS011;63200;48.810;12.352;2023-08-01T03:03:34;5.20;;;4.28;;
74674;SDS011;63200;48.810;12.352;2023-08-01T03:06:01;6.90;;;4.28;;
74674;SDS011;63200;48.810;12.352;2023-08-01T03:08:27;6.50;;;4.35;;
74674;SDS011;63200;48.810;12.352;2023-08-01T03:10:53;7.93;;;4.47;;
74674;SDS011;63200;48.810;12.352;2023-08-01T03:13:18;7.93;;;5.07;;
74674;SDS011;63200;48.810;12.352;2023-08-01T03:15:44;7.43;;;4.53;;
74674;SDS011;63200;48.810;12.352;2023-08-01T03:18:09;5.57;;;4.50;;
74674;SDS011;63200;48.810;12.352;2023-08-01T03:20:34;6.78;;;5.03;;
74674;SDS011;63200;48.810;12.352;2023-08-01T03:23:00;8.15;;;4.70;;
74674;SDS011;63200;48.810;12.352;2023-08-01T03:25:25;11.00;;;4.88;;
74674;SDS011;63200;48.810;12.352;2023-08-01T03:27:50;6.55;;;5.05;;
74674;SDS011;63200;48.810;12.352;2023-08-01T03:30:16;10.32;;;4.68;;
74674;SDS011;63200;48.810;12.352;2023-08-01T03:32:41;7.22;;;4.65;;
74674;SDS011;63200;48.810;12.352;2023-08-01T03:35:06;8.82;;;4.75;;
74674;SDS011;63200;48.810;12.352;2023-08-01T03:37:32;8.30;;;4.95;;
74674;SDS011;63200;48.810;12.352;2023-08-01T03:39:57;7.90;;;4.88;;
74674;SDS011;63200;48.810;12.352;2023-08-01T03:42:23;10.10;;;5.30;;
74674;SDS011;63200;48.810;12.352;2023-08-01T03:44:48;10.43;;;4.63;;
74674;SDS011;63200;48.810;12.352;2023-08-01T03:47:13;5.30;;;4.60;;
74674;SDS011;63200;48.810;12.352;2023-08-01T03:49:39;6.15;;;4.57;;
74674;SDS011;63200;48.810;12.352;2023-08-01T03:52:05;9.05;;;4.40;;
74674;SDS011;63200;48.810;12.352;2023-08-01T03:54:31;5.93;;;4.30;;
74674;SDS011;63200;48.810;12.352;2023-08-01T03:56:56;6.05;;;4.35;;
74674;SDS011;63200;48.810;12.352;2023-08-01T03:59:21;6.95;;;4.60;;
74674;SDS011;63200;48.810;12.352;2023-08-01T04:01:47;8.32;;;4.63;;
74674;SDS011;63200;48.810;12.352;2023-08-01T04:04:12;7.82;;;4.55;;
74674;SDS011;63200;48.810;12.352;2023-08-01T04:06:38;13.50;;;4.55;;
74674;SDS011;63200;48.810;12.352;2023-08-01T04:09:03;7.13;;;5.13;;
74674;SDS011;63200;48.810;12.352;2023-08-01T04:11:28;6.07;;;4.10;;
74674;SDS011;63200;48.810;12.352;2023-08-01T04:13:55;9.52;;;4.28;;
74674;SDS011;63200;48.810;12.352;2023-08-01T04:16:21;8.65;;;4.68;;
74674;SDS011;63200;48.810;12.352;2023-08-01T04:18:46;9.88;;;4.88;;
74674;SDS011;63200;48.810;12.352;2023-08-01T04:21:13;8.63;;;4.38;;
74674;SDS011;63200;48.810;12.352;2023-08-01T04:23:39;7.38;;;4.63;;
74674;SDS011;63200;48.810;12.352;2023-08-01T04:26:05;11.23;;;4.80;;
74674;SDS011;63200;48.810;12.352;2023-08-01T04:28:31;6.00;;;3.80;;
74674;SDS011;63200;48.810;12.352;2023-08-01T04:30:57;5.97;;;4.05;;
74674;SDS011;63200;48.810;12.352;2023-08-01T04:33:22;7.18;;;3.85;;
74674;SDS011;63200;48.810;12.352;2023-08-01T04:35:48;8.38;;;4.22;;
74674;SDS011;63200;48.810;12.352;2023-08-01T04:38:14;5.28;;;4.05;;
74674;SDS011;63200;48.810;12.352;2023-08-01T04:40:40;5.40;;;4.07;;
74674;SDS011;63200;48.810;12.352;2023-08-01T04:43:05;9.38;;;4.30;;
74674;SDS011;63200;48.810;12.352;2023-08-01T04:45:31;6.70;;;4.07;;
74674;SDS011;63200;48.810;12.352;2023-08-01T04:47:56;7.28;;;4.43;;
74674;SDS011;63200;48.810;12.352;2023-08-01T04:50:21;7.82;;;4.35;;
74674;SDS011;63200;48.810;12.352;2023-08-01T04:52:46;6.90;;;4.70;;
74674;SDS011;63200;48.810;12.352;2023-08-01T04:55:12;7.30;;;4.88;;
74674;SDS011;63200;48.810;12.352;2023-08-01T04:57:37;8.02;;;4.22;;
74674;SDS011;63200;48.810;12.352;2023-08-01T05:00:03;8.23;;;4.43;;
74674;SDS011;63200;48.810;12.352;2023-08-01T05:02:29;10.68;;;4.82;;
74674;SDS011;63200;48.810;12.352;2023-08-01T05:04:54;5.68;;;4.50;;
74674;SDS011;63200;48.810;12.352;2023-08-01T05:07:19;6.65;;;4.60;;
74674;SDS011;63200;48.810;12.352;2023-08-01T05:09:45;5.95;;;4.28;;
74674;SDS011;63200;48.810;12.352;2023-08-01T05:12:10;6.00;;;4.63;;
74674;SDS011;63200;48.810;12.352;2023-08-01T05:14:35;6.63;;;4.53;;
74674;SDS011;63200;48.810;12.352;2023-08-01T05:17:01;5.93;;;4.55;;
74674;SDS011;63200;48.810;12.352;2023-08-01T05:19:26;7.32;;;4.60;;
74674;SDS011;63200;48.810;12.352;2023-08-01T05:21:51;8.48;;;4.40;;
74674;SDS011;63200;48.810;12.352;2023-08-01T05:24:17;5.25;;;4.07;;
74674;SDS011;63200;48.810;12.352;2023-08-01T05:26:42;5.45;;;4.03;;
74674;SDS011;63200;48.810;12.352;2023-08-01T05:29:07;6.53;;;4.25;;
74674;SDS011;63200;48.810;12.352;2023-08-01T05:31:33;5.15;;;3.60;;
74674;SDS011;63200;48.810;12.352;2023-08-01T05:33:58;6.78;;;3.60;;
74674;SDS011;63200;48.810;12.352;2023-08-01T05:36:23;5.13;;;3.75;;
74674;SDS011;63200;48.810;12.352;2023-08-01T05:38:49;5.50;;;3.83;;
74674;SDS011;63200;48.810;12.352;2023-08-01T05:41:14;4.97;;;3.78;;
74674;SDS011;63200;48.810;12.352;2023-08-01T05:43:39;7.70;;;4.72;;
74674;SDS011;63200;48.810;12.352;2023-08-01T05:46:05;5.90;;;3.75;;
74674;SDS011;63200;48.810;12.352;2023-08-01T05:48:30;8.45;;;4.38;;
74674;SDS011;63200;48.810;12.352;2023-08-01T05:50:55;7.55;;;4.47;;
74674;SDS011;63200;48.810;12.352;2023-08-01T05:53:21;6.13;;;4.20;;
74674;SDS011;63200;48.810;12.352;2023-08-01T05:55:47;9.07;;;4.38;;
74674;SDS011;63200;48.810;12.352;2023-08-01T05:58:13;5.30;;;4.30;;
74674;SDS011;63200;48.810;12.352;2023-08-01T06:00:38;6.18;;;4.70;;
74674;SDS011;63200;48.810;12.352;2023-08-01T06:03:03;6.50;;;4.60;;
74674;SDS011;63200;48.810;12.352;2023-08-01T06:05:29;5.38;;;4.18;;
74674;SDS011;63200;48.810;12.352;2023-08-01T06:07:55;8.15;;;4.32;;
74674;SDS011;63200;48.810;12.352;2023-08-01T06:10:20;6.57;;;4.10;;
74674;SDS011;63200;48.810;12.352;2023-08-01T06:12:46;5.82;;;4.80;;
74674;SDS011;63200;48.810;12.352;2023-08-01T06:15:11;7.30;;;4.68;;
74674;SDS011;63200;48.810;12.352;2023-08-01T06:17:37;6.70;;;4.72;;
74674;SDS011;63200;48.810;12.352;2023-08-01T06:20:03;6.75;;;4.50;;
74674;SDS011;63200;48.810;12.352;2023-08-01T06:22:29;9.27;;;4.95;;
74674;SDS011;63200;48.810;12.352;2023-08-01T06:24:55;7.30;;;4.70;;
74674;SDS011;63200;48.810;12.352;2023-08-01T06:27:20;7.03;;;4.72;;
74674;SDS011;63200;48.810;12.352;2023-08-01T06:29:45;6.32;;;4.53;;
74674;SDS011;63200;48.810;12.352;2023-08-01T06:32:11;6.28;;;4.43;;
74674;SDS011;63200;48.810;12.352;2023-08-01T06:34:36;4.47;;;4.00;;
74674;SDS011;63200;48.810;12.352;2023-08-01T06:37:02;5.07;;;4.25;;
74674;SDS011;63200;48.810;12.352;2023-08-01T06:39:28;6.35;;;4.22;;
74674;SDS011;63200;48.810;12.352;2023-08-01T06:41:54;5.28;;;4.25;;
74674;SDS011;63200;48.810;12.352;2023-08-01T06:44:19;7.25;;;3.78;;
74674;SDS011;63200;48.810;12.352;2023-08-01T06:46:44;6.03;;;4.20;;
74674;SDS011;63200;48.810;12.352;2023-08-01T06:49:10;6.50;;;4.10;;
74674;SDS011;63200;48.810;12.352;2023-08-01T06:51:35;6.90;;;3.85;;
74674;SDS011;63200;48.810;12.352;2023-08-01T06:54:00;5.28;;;4.07;;
74674;SDS011;63200;48.810;12.352;2023-08-01T06:56:26;5.22;;;3.53;;
74674;SDS011;63200;48.810;12.352;2023-08-01T06:58:51;5.03;;;3.90;;
74674;SDS011;63200;48.810;12.352;2023-08-01T07:01:16;5.80;;;4.05;;
74674;SDS011;63200;48.810;12.352;2023-08-01T07:03:42;7.40;;;3.90;;
74674;SDS011;63200;48.810;12.352;2023-08-01T07:06:07;6.97;;;3.78;;
74674;SDS011;63200;48.810;12.352;2023-08-01T07:08:32;8.40;;;4.00;;
74674;SDS011;63200;48.810;12.352;2023-08-01T07:10:58;8.35;;;4.22;;
74674;SDS011;63200;48.810;12.352;2023-08-01T07:13:24;6.03;;;3.95;;
74674;SDS011;63200;48.810;12.352;2023-08-01T07:15:50;5.70;;;3.97;;
74674;SDS011;63200;48.810;12.352;2023-08-01T07:18:15;5.00;;;3.95;;
74674;SDS011;63200;48.810;12.352;2023-08-01T07:20:41;8.73;;;4.22;;
74674;SDS011;63200;48.810;12.352;2023-08-01T07:23:06;4.55;;;4.15;;
74674;SDS011;63200;48.810;12.352;2023-08-01T07:25:32;7.28;;;3.92;;
74674;SDS011;63200;48.810;12.352;2023-08-01T07:27:57;4.28;;;3.72;;
74674;SDS011;63200;48.810;12.352;2023-08-01T07:30:23;6.63;;;4.40;;
74674;SDS011;63200;48.810;12.352;2023-08-01T07:32:48;7.65;;;3.97;;
74674;SDS011;63200;48.810;12.352;2023-08-01T07:35:13;6.05;;;4.55;;
74674;SDS011;63200;48.810;12.352;2023-08-01T07:37:39;6.97;;;4.28;;
74674;SDS011;63200;48.810;12.352;2023-08-01T07:40:05;5.32;;;4.03;;
74674;SDS011;63200;48.810;12.352;2023-08-01T07:42:31;6.78;;;4.57;;
74674;SDS011;63200;48.810;12.352;2023-08-01T07:44:56;7.82;;;4.18;;
74674;SDS011;63200;48.810;12.352;2023-08-01T07:47:22;9.25;;;4.80;;
74674;SDS011;63200;48.810;12.352;2023-08-01T07:49:48;8.90;;;4.13;;
74674;SDS011;63200;48.810;12.352;2023-08-01T07:52:14;7.82;;;4.38;;
74674;SDS011;63200;48.810;12.352;2023-08-01T07:54:39;5.97;;;3.70;;
74674;SDS011;63200;48.810;12.352;2023-08-01T07:57:05;6.68;;;4.35;;
74674;SDS011;63200;48.810;12.352;2023-08-01T07:59:30;7.18;;;4.18;;
74674;SDS011;63200;48.810;12.352;2023-08-01T08:01:56;5.13;;;4.18;;
74674;SDS011;63200;48.810;12.352;2023-08-01T08:04:21;5.97;;;4.28;;
74674;SDS011;63200;48.810;12.352;2023-08-01T08:06:46;4.47;;;3.70;;
74674;SDS011;63200;48.810;12.352;2023-08-01T08:09:12;7.82;;;3.90;;
74674;SDS011;63200;48.810;12.352;2023-08-01T08:11:37;5.18;;;4.18;;
74674;SDS011;63200;48.810;12.352;2023-08-01T08:14:02;5.95;;;4.40;;
74674;SDS011;63200;48.810;12.352;2023-08-01T08:16:28;6.18;;;4.00;;
74674;SDS011;63200;48.810;12.352;2023-08-01T08:18:54;4.50;;;4.10;;
74674;SDS011;63200;48.810;12.352;2023-08-01T08:21:19;7.65;;;4.00;;
74674;SDS011;63200;48.810;12.352;2023-08-01T08:23:45;4.20;;;3.80;;
74674;SDS011;63200;48.810;12.352;2023-08-01T08:26:10;6.55;;;4.05;;
74674;SDS011;63200;48.810;12.352;2023-08-01T08:28:36;4.40;;;3.92;;
74674;SDS011;63200;48.810;12.352;2023-08-01T08:31:02;4.00;;;3.70;;
74674;SDS011;63200;48.810;12.352;2023-08-01T08:33:28;4.43;;;3.78;;
74674;SDS011;63200;48.810;12.352;2023-08-01T08:35:54;6.75;;;4.00;;
74674;SDS011;63200;48.810;12.352;2023-08-01T08:38:19;5.55;;;4.07;;
74674;SDS011;63200;48.810;12.352;2023-08-01T08:43:35;5.43;;;3.95;;
74674;SDS011;63200;48.810;12.352;2023-08-01T08:46:03;4.90;;;3.80;;
74674;SDS011;63200;48.810;12.352;2023-08-01T08:48:29;7.20;;;3.90;;
74674;SDS011;63200;48.810;12.352;2023-08-01T08:50:59;4.18;;;3.78;;
74674;SDS011;63200;48.810;12.352;2023-08-01T08:53:25;7.28;;;3.95;;
74674;SDS011;63200;48.810;12.352;2023-08-01T08:55:52;4.43;;;4.03;;
74674;SDS011;63200;48.810;12.352;2023-08-01T08:58:17;5.78;;;4.18;;
74674;SDS011;63200;48.810;12.352;2023-08-01T09:00:43;5.45;;;4.07;;
74674;SDS011;63200;48.810;12.352;2023-08-01T09:03:09;6.40;;;4.45;;
74674;SDS011;63200;48.810;12.352;2023-08-01T09:05:39;5.07;;;3.92;;
74674;SDS011;63200;48.810;12.352;2023-08-01T09:08:15;6.45;;;4.15;;
74674;SDS011;63200;48.810;12.352;2023-08-01T09:10:42;6.65;;;4.70;;
74674;SDS011;63200;48.810;12.352;2023-08-01T09:13:08;6.80;;;4.00;;
74674;SDS011;63200;48.810;12.352;2023-08-01T09:15:34;5.63;;;4.28;;
74674;SDS011;63200;48.810;12.352;2023-08-01T09:18:05;6.07;;;4.10;;
74674;SDS011;63200;48.810;12.352;2023-08-01T09:20:45;4.88;;;4.38;;
74674;SDS011;63200;48.810;12.352;2023-08-01T09:23:12;5.63;;;4.03;;
74674;SDS011;63200;48.810;12.352;2023-08-01T09:25:38;8.15;;;4.50;;
74674;SDS011;63200;48.810;12.352;2023-08-01T09:30:50;5.80;;;3.55;;
74674;SDS011;63200;48.810;12.352;2023-08-01T09:33:17;8.48;;;4.25;;
74674;SDS011;63200;48.810;12.352;2023-08-01T09:35:43;4.63;;;3.85;;
74674;SDS011;63200;48.810;12.352;2023-08-01T09:38:11;6.75;;;4.40;;
74674;SDS011;63200;48.810;12.352;2023-08-01T09:40:40;8.70;;;4.05;;
74674;SDS011;63200;48.810;12.352;2023-08-01T09:43:06;5.28;;;3.90;;
74674;SDS011;63200;48.810;12.352;2023-08-01T09:45:32;6.05;;;4.20;;
74674;SDS011;63200;48.810;12.352;2023-08-01T09:47:59;6.38;;;3.90;;
74674;SDS011;63200;48.810;12.352;2023-08-01T09:50:25;6.35;;;4.30;;
74674;SDS011;63200;48.810;12.352;2023-08-01T09:52:50;8.07;;;4.43;;
74674;SDS011;63200;48.810;12.352;2023-08-01T09:55:40;5.15;;;3.78;;
74674;SDS011;63200;48.810;12.352;2023-08-01T09:58:05;6.25;;;3.92;;
74674;SDS011;63200;48.810;12.352;2023-08-01T10:00:32;6.30;;;4.22;;
74674;SDS011;63200;48.810;12.352;2023-08-01T10:02:58;6.10;;;4.05;;
74674;SDS011;63200;48.810;12.352;2023-08-01T10:05:26;4.38;;;3.90;;
74674;SDS011;63200;48.810;12.352;2023-08-01T10:07:54;7.85;;;4.30;;
74674;SDS011;63200;48.810;12.352;2023-08-01T10:10:23;4.60;;;4.07;;
74674;SDS011;63200;48.810;12.352;2023-08-01T10:12:50;7.95;;;4.30;;
74674;SDS011;63200;48.810;12.352;2023-08-01T10:15:16;6.20;;;4.35;;
74674;SDS011;63200;48.810;12.352;2023-08-01T10:17:42;6.25;;;4.40;;
74674;SDS011;63200;48.810;12.352;2023-08-01T10:20:10;4.93;;;3.60;;
74674;SDS011;63200;48.810;12.352;2023-08-01T10:22:37;4.78;;;3.35;;
74674;SDS011;63200;48.810;12.352;2023-08-01T10:25:04;6.75;;;3.38;;
74674;SDS011;63200;48.810;12.352;2023-08-01T10:27:30;6.40;;;3.65;;
74674;SDS011;63200;48.810;12.352;2023-08-01T10:29:59;5.30;;;3.53;;
74674;SDS011;63200;48.810;12.352;2023-08-01T10:32:37;7.65;;;3.90;;
74674;SDS011;63200;48.810;12.352;2023-08-01T10:35:03;7.03;;;4.15;;
74674;SDS011;63200;48.810;12.352;2023-08-01T10:37:39;5.35;;;3.50;;
74674;SDS011;63200;48.810;12.352;2023-08-01T10:40:08;6.70;;;3.60;;
74674;SDS011;63200;48.810;12.352;2023-08-01T10:42:40;7.68;;;3.90;;
74674;SDS011;63200;48.810;12.352;2023-08-01T10:45:16;5.88;;;3.60;;
74674;SDS011;63200;48.810;12.352;2023-08-01T10:47:48;6.05;;;3.75;;
74674;SDS011;63200;48.810;12.352;2023-08-01T10:50:14;6.10;;;4.13;;
74674;SDS011;63200;48.810;12.352;2023-08-01T10:52:41;5.50;;;4.25;;
74674;SDS011;63200;48.810;12.352;2023-08-01T10:55:06;6.85;;;4.15;;
74674;SDS011;63200;48.810;12.352;2023-08-01T10:57:34;8.27;;;4.40;;
74674;SDS011;63200;48.810;12.352;2023-08-01T11:00:01;8.05;;;4.47;;
74674;SDS011;63200;48.810;12.352;2023-08-01T11:02:30;6.03;;;3.85;;
74674;SDS011;63200;48.810;12.352;2023-08-01T11:05:05;6.05;;;4.20;;
74674;SDS011;63200;48.810;12.352;2023-08-01T11:07:32;6.88;;;4.25;;
74674;SDS011;63200;48.810;12.352;2023-08-01T11:12:35;8.80;;;4.72;;
74674;SDS011;63200;48.810;12.352;2023-08-01T11:15:05;5.05;;;4.28;;
74674;SDS011;63200;48.810;12.352;2023-08-01T11:17:33;5.97;;;4.07;;
74674;SDS011;63200;48.810;12.352;2023-08-01T11:20:06;6.28;;;4.60;;
74674;SDS011;63200;48.810;12.352;2023-08-01T11:22:33;4.82;;;4.00;;
74674;SDS011;63200;48.810;12.352;2023-08-01T11:24:59;4.80;;;3.72;;
74674;SDS011;63200;48.810;12.352;2023-08-01T11:27:25;5.90;;;3.85;;
74674;SDS011;63200;48.810;12.352;2023-08-01T11:29:51;7.57;;;4.05;;
74674;SDS011;63200;48.810;12.352;2023-08-01T11:32:17;5.28;;;4.18;;
74674;SDS011;63200;48.810;12.352;2023-08-01T11:34:45;6.07;;;4.22;;
74674;SDS011;63200;48.810;12.352;2023-08-01T11:37:11;4.43;;;3.80;;
74674;SDS011;63200;48.810;12.352;2023-08-01T11:39:43;5.47;;;3.78;;
74674;SDS011;63200;48.810;12.352;2023-08-01T11:42:14;5.43;;;3.95;;
74674;SDS011;63200;48.810;12.352;2023-08-01T11:44:41;6.75;;;4.25;;
74674;SDS011;63200;48.810;12.352;2023-08-01T11:47:12;4.50;;;4.10;;
74674;SDS011;63200;48.810;12.352;2023-08-01T11:49:48;6.57;;;3.47;;
74674;SDS011;63200;48.810;12.352;2023-08-01T11:52:24;7.00;;;4.03;;
74674;SDS011;63200;48.810;12.352;2023-08-01T11:54:53;9.40;;;4.05;;
74674;SDS011;63200;48.810;12.352;2023-08-01T11:57:22;5.70;;;4.40;;
74674;SDS011;63200;48.810;12.352;2023-08-01T11:59:49;3.58;;;3.10;;
74674;SDS011;63200;48.810;12.352;2023-08-01T12:02:28;4.88;;;4.20;;
74674;SDS011;63200;48.810;12.352;2023-08-01T12:04:56;6.78;;;3.60;;
74674;SDS011;63200;48.810;12.352;2023-08-01T12:07:24;5.68;;;4.22;;
74674;SDS011;63200;48.810;12.352;2023-08-01T12:09:56;4.40;;;3.67;;
74674;SDS011;63200;48.810;12.352;2023-08-01T12:12:23;4.63;;;3.05;;
74674;SDS011;63200;48.810;12.352;2023-08-01T12:14:49;7.22;;;3.70;;
74674;SDS011;63200;48.810;12.352;2023-08-01T12:17:14;5.20;;;3.53;;
74674;SDS011;63200;48.810;12.352;2023-08-01T12:19:39;4.80;;;3.13;;
74674;SDS011;63200;48.810;12.352;2023-08-01T12:22:05;2.83;;;2.63;;
74674;SDS011;63200;48.810;12.352;2023-08-01T12:24:30;2.92;;;2.72;;
74674;SDS011;63200;48.810;12.352;2023-08-01T12:26:56;3.95;;;3.10;;
74674;SDS011;63200;48.810;12.352;2023-08-01T12:29:21;4.90;;;2.80;;
74674;SDS011;63200;48.810;12.352;2023-08-01T12:31:48;3.05;;;2.38;;
74674;SDS011;63200;48.810;12.352;2023-08-01T12:34:13;2.90;;;1.80;;
74674;SDS011;63200;48.810;12.352;2023-08-01T12:36:39;3.33;;;2.40;;
74674;SDS011;63200;48.810;12.352;2023-08-01T12:39:04;2.90;;;2.65;;
74674;SDS011;63200;48.810;12.352;2023-08-01T12:41:35;3.03;;;2.42;;
74674;SDS011;63200;48.810;12.352;2023-08-01T12:44:00;3.50;;;2.50;;
74674;SDS011;63200;48.810;12.352;2023-08-01T12:46:26;2.45;;;2.03;;
74674;SDS011;63200;48.810;12.352;2023-08-01T12:48:51;2.70;;;2.50;;
74674;SDS011;63200;48.810;12.352;2023-08-01T12:51:16;2.53;;;2.20;;
74674;SDS011;63200;48.810;12.352;2023-08-01T12:53:42;2.70;;;2.50;;
74674;SDS011;63200;48.810;12.352;2023-08-01T12:56:07;2.33;;;2.13;;
74674;SDS011;63200;48.810;12.352;2023-08-01T12:58:34;3.03;;;2.72;;
74674;SDS011;63200;48.810;12.352;2023-08-01T13:01:01;4.03;;;2.83;;
74674;SDS011;63200;48.810;12.352;2023-08-01T13:03:28;3.63;;;2.45;;
74674;SDS011;63200;48.810;12.352;2023-08-01T13:05:53;3.33;;;2.45;;
74674;SDS011;63200;48.810;12.352;2023-08-01T13:08:19;5.53;;;2.60;;
74674;SDS011;63200;48.810;12.352;2023-08-01T13:10:44;2.75;;;2.55;;
74674;SDS011;63200;48.810;12.352;2023-08-01T13:13:11;3.20;;;2.60;;
74674;SDS011;63200;48.810;12.352;2023-08-01T13:15:36;5.43;;;2.70;;
74674;SDS011;63200;48.810;12.352;2023-08-01T13:18:01;3.13;;;2.92;;
74674;SDS011;63200;48.810;12.352;2023-08-01T13:20:27;2.72;;;2.47;;
74674;SDS011;63200;48.810;12.352;2023-08-01T13:22:52;5.55;;;3.78;;
74674;SDS011;63200;48.810;12.352;2023-08-01T13:25:18;2.63;;;2.42;;
74674;SDS011;63200;48.810;12.352;2023-08-01T13:27:44;3.03;;;2.60;;
74674;SDS011;63200;48.810;12.352;2023-08-01T13:30:10;2.50;;;2.30;;
74674;SDS011;63200;48.810;12.352;2023-08-01T13:32:39;3.28;;;2.58;;
74674;SDS011;63200;48.810;12.352;2023-08-01T13:35:04;3.17;;;2.33;;
74674;SDS011;63200;48.810;12.352;2023-08-01T13:37:30;2.38;;;2.17;;
74674;SDS011;63200;48.810;12.352;2023-08-01T13:39:56;3.58;;;2.45;;
74674;SDS011;63200;48.810;12.352;2023-08-01T13:42:22;2.53;;;2.33;;
74674;SDS011;63200;48.810;12.352;2023-08-01T13:44:47;2.10;;;2.00;;
74674;SDS011;63200;48.810;12.352;2023-08-01T13:47:13;3.95;;;2.22;;
74674;SDS011;63200;48.810;12.352;2023-08-01T13:49:38;2.58;;;2.05;;
74674;SDS011;63200;48.810;12.352;2023-08-01T13:52:03;2.17;;;1.98;;
74674;SDS011;63200;48.810;12.352;2023-08-01T13:54:29;2.00;;;1.90;;
74674;SDS011;63200;48.810;12.352;2023-08-01T13:56:55;2.10;;;1.90;;
74674;SDS011;63200;48.810;12.352;2023-08-01T13:59:20;2.05;;;1.70;;
74674;SDS011;63200;48.810;12.352;2023-08-01T14:01:46;2.70;;;2.10;;
74674;SDS011;63200;48.810;12.352;2023-08-01T14:04:11;2.70;;;2.13;;
74674;SDS011;63200;48.810;12.352;2023-08-01T14:06:40;1.95;;;1.85;;
74674;SDS011;63200;48.810;12.352;2023-08-01T14:09:06;3.13;;;1.73;;
74674;SDS011;63200;48.810;12.352;2023-08-01T14:11:33;2.13;;;1.83;;
74674;SDS011;63200;48.810;12.352;2023-08-01T14:13:59;1.95;;;1.85;;
74674;SDS011;63200;48.810;12.352;2023-08-01T14:16:30;2.33;;;1.70;;
74674;SDS011;63200;48.810;12.352;2023-08-01T14:18:56;2.67;;;1.95;;
74674;SDS011;63200;48.810;12.352;2023-08-01T14:21:22;1.67;;;1.58;;
74674;SDS011;63200;48.810;12.352;2023-08-01T14:23:47;1.67;;;1.48;;
74674;SDS011;63200;48.810;12.352;2023-08-01T14:26:12;2.45;;;1.70;;
74674;SDS011;63200;48.810;12.352;2023-08-01T14:28:38;3.10;;;1.63;;
74674;SDS011;63200;48.810;12.352;2023-08-01T14:31:03;1.50;;;1.50;;
74674;SDS011;63200;48.810;12.352;2023-08-01T14:33:29;1.40;;;1.40;;
74674;SDS011;63200;48.810;12.352;2023-08-01T14:35:55;1.30;;;1.30;;
74674;SDS011;63200;48.810;12.352;2023-08-01T14:38:21;1.90;;;1.80;;